Time;durP1;ratioP1;P1;durP2;ratioP2;P2;SDS_P1;SDS_P2;PMS_P1;PMS_P2;Temp;Humidity;BMP_temperature;BMP_pressure;BME280_temperature;BME280_humidity;BME280_pressure;Samples;Min_cycle;Max_cycle;Signal;HPM_P1;HPM_P2
2022/03/13 00:02:02;;;;;;;15.65;10.63;;;8.30;77.70;;;;;;5141129;27;37791;-56
2022/03/13 00:04:29;;;;;;;15.90;10.65;;;8.30;77.60;;;;;;5141045;27;37488;-55
2022/03/13 00:06:57;;;;;;;17.42;11.02;;;8.40;77.70;;;;;;5140386;27;37095;-56
2022/03/13 00:09:25;;;;;;;21.02;10.75;;;8.30;77.60;;;;;;5143090;27;38049;-56
2022/03/13 00:11:53;;;;;;;16.50;10.85;;;8.30;77.60;;;;;;5141890;27;39413;-55
2022/03/13 00:14:24;;;;;;;16.60;10.82;;;8.30;77.60;;;;;;5142003;27;38526;-56
2022/03/13 00:16:54;;;;;;;19.63;10.98;;;8.20;77.60;;;;;;5141705;27;38401;-56
2022/03/13 00:19:22;;;;;;;16.85;11.65;;;8.20;77.70;;;;;;5142203;27;36260;-56
2022/03/13 00:21:52;;;;;;;18.77;10.77;;;8.30;77.90;;;;;;5142455;27;37081;-57
2022/03/13 00:24:22;;;;;;;15.70;10.52;;;8.30;78.00;;;;;;5142244;27;38774;-56
2022/03/13 00:26:52;;;;;;;16.83;11.57;;;8.20;78.10;;;;;;5141123;27;36560;-56
2022/03/13 00:29:19;;;;;;;15.40;10.52;;;8.30;78.20;;;;;;5142121;27;36304;-56
2022/03/13 00:31:47;;;;;;;18.35;11.77;;;8.20;78.40;;;;;;5142923;27;37061;-56
2022/03/13 00:34:15;;;;;;;16.92;11.60;;;8.20;78.50;;;;;;5142785;27;38769;-56
2022/03/13 00:36:43;;;;;;;15.30;10.57;;;8.20;78.70;;;;;;5141520;27;36486;-56
2022/03/13 00:39:11;;;;;;;20.50;11.63;;;8.20;78.80;;;;;;5142572;27;36262;-56
2022/03/13 00:41:38;;;;;;;17.92;11.68;;;8.20;79.00;;;;;;5141387;27;36647;-56
2022/03/13 00:44:06;;;;;;;15.57;10.77;;;8.20;79.10;;;;;;5142248;27;37278;-56
2022/03/13 00:46:33;;;;;;;16.88;10.98;;;8.20;79.30;;;;;;5140673;27;37311;-56
2022/03/13 00:49:01;;;;;;;20.83;10.73;;;8.20;79.30;;;;;;5142137;27;38376;-57
2022/03/13 00:51:30;;;;;;;18.25;11.55;;;8.20;79.30;;;;;;5141925;27;38676;-56
2022/03/13 00:53:57;;;;;;;17.15;11.07;;;8.30;79.40;;;;;;5141808;27;36963;-56
2022/03/13 00:56:24;;;;;;;17.55;11.45;;;8.20;79.50;;;;;;5140684;27;37810;-56
2022/03/13 00:58:52;;;;;;;19.02;11.43;;;8.20;79.70;;;;;;5141533;27;36153;-56
2022/03/13 01:01:19;;;;;;;16.85;10.85;;;8.20;79.80;;;;;;5140814;27;40139;-56
2022/03/13 01:03:49;;;;;;;16.35;11.30;;;8.20;80.00;;;;;;5140543;27;38525;-57
2022/03/13 01:06:19;;;;;;;17.05;11.20;;;8.20;80.20;;;;;;5141032;27;20096;-56
2022/03/13 01:08:48;;;;;;;15.63;11.43;;;8.20;80.40;;;;;;5141105;27;38045;-57
2022/03/13 01:11:18;;;;;;;16.00;11.35;;;8.20;80.40;;;;;;5138304;27;37734;-56
2022/03/13 01:13:46;;;;;;;20.73;11.30;;;8.30;80.70;;;;;;5139453;27;36312;-56
2022/03/13 01:16:16;;;;;;;17.40;12.05;;;8.20;80.80;;;;;;5140137;27;36659;-56
2022/03/13 01:18:46;;;;;;;15.93;11.13;;;8.20;81.00;;;;;;5138603;27;35879;-56
2022/03/13 01:21:14;;;;;;;17.48;11.95;;;8.30;81.20;;;;;;5141240;27;36535;-56
2022/03/13 01:23:42;;;;;;;20.50;12.20;;;8.30;81.30;;;;;;5140586;27;38205;-55
2022/03/13 01:26:36;;;;;;;18.27;11.98;;;8.30;81.40;;;;;;5140244;27;39339;-56
2022/03/13 01:29:06;;;;;;;21.67;11.82;;;8.30;82.20;;;;;;5121386;27;36296;-56
2022/03/13 01:31:35;;;;;;;17.25;11.65;;;8.20;81.70;;;;;;5140578;27;37566;-56
2022/03/13 01:34:04;;;;;;;19.08;12.90;;;8.30;81.90;;;;;;5140999;27;37032;-56
2022/03/13 01:36:32;;;;;;;16.58;11.50;;;8.20;81.90;;;;;;5139840;27;36308;-56
2022/03/13 01:39:01;;;;;;;19.83;12.30;;;8.20;82.20;;;;;;5141450;27;37401;-56
2022/03/13 01:41:30;;;;;;;16.65;11.77;;;8.20;82.40;;;;;;5140819;27;38147;-56
2022/03/13 01:43:59;;;;;;;17.60;11.80;;;8.20;82.40;;;;;;5141497;27;37260;-56
2022/03/13 01:46:27;;;;;;;16.13;10.93;;;8.20;82.50;;;;;;5140870;27;36609;-56
2022/03/13 01:48:57;;;;;;;18.00;11.75;;;8.20;82.90;;;;;;5140035;27;37576;-57
2022/03/13 01:51:25;;;;;;;18.77;12.73;;;8.30;82.30;;;;;;5140256;27;39418;-56
2022/03/13 01:53:56;;;;;;;16.73;12.07;;;8.20;82.20;;;;;;5139245;27;37249;-56
2022/03/13 01:56:24;;;;;;;17.70;11.35;;;8.30;82.40;;;;;;5140915;27;35627;-56
2022/03/13 01:58:53;;;;;;;19.95;12.23;;;8.30;82.40;;;;;;5140273;27;36344;-56
2022/03/13 02:01:25;;;;;;;18.10;12.13;;;8.20;82.40;;;;;;5140459;27;37909;-56
2022/03/13 02:03:52;;;;;;;19.70;12.63;;;8.30;82.50;;;;;;5139784;27;38279;-56
2022/03/13 02:06:22;;;;;;;19.30;12.50;;;8.20;82.50;;;;;;5139582;27;35714;-56
2022/03/13 02:08:50;;;;;;;17.88;11.82;;;8.20;82.70;;;;;;5140063;27;37522;-56
2022/03/13 02:11:19;;;;;;;17.83;12.10;;;8.20;82.70;;;;;;5140730;27;38358;-56
2022/03/13 02:13:48;;;;;;;19.42;12.52;;;8.30;82.70;;;;;;5141049;27;37183;-56
2022/03/13 02:16:17;;;;;;;16.70;11.43;;;8.30;82.80;;;;;;5140461;27;36696;-56
2022/03/13 02:18:50;;;;;;;16.58;11.57;;;8.30;82.70;;;;;;5141049;27;37768;-56
2022/03/13 02:21:18;;;;;;;17.45;11.43;;;8.30;82.90;;;;;;5140451;27;37434;-56
2022/03/13 02:23:46;;;;;;;18.40;12.23;;;8.30;82.70;;;;;;5142930;27;37491;-56
2022/03/13 02:26:14;;;;;;;17.70;11.77;;;8.30;82.80;;;;;;5144109;27;37238;-56
2022/03/13 02:28:56;;;;;;;17.27;11.43;;;8.30;83.50;;;;;;5142896;27;40068;-56
2022/03/13 02:31:28;;;;;;;17.83;12.15;;;8.30;82.90;;;;;;5143780;27;36473;-56
2022/03/13 02:33:57;;;;;;;19.33;12.45;;;8.30;82.90;;;;;;5143992;27;37408;-56
2022/03/13 02:36:34;;;;;;;18.33;11.68;;;8.30;82.90;;;;;;5143624;27;37814;-56
2022/03/13 02:39:04;;;;;;;17.83;12.35;;;8.30;82.80;;;;;;5143316;27;37347;-56
2022/03/13 02:41:32;;;;;;;24.13;12.90;;;8.30;82.90;;;;;;5143933;27;37583;-56
2022/03/13 02:43:59;;;;;;;19.48;12.63;;;8.40;83.00;;;;;;5144348;27;37829;-56
2022/03/13 02:46:55;;;;;;;18.50;12.45;;;8.40;82.90;;;;;;5144160;27;35359;-56
2022/03/13 02:49:24;;;;;;;21.42;12.50;;;8.40;83.50;;;;;;5142881;27;38059;-57
2022/03/13 02:51:54;;;;;;;18.13;12.75;;;8.30;83.10;;;;;;5143408;27;37729;-56
2022/03/13 02:54:22;;;;;;;20.20;12.27;;;8.30;83.10;;;;;;5143619;27;36246;-56
2022/03/13 02:56:50;;;;;;;19.27;13.45;;;8.40;83.20;;;;;;5142495;27;36845;-57
2022/03/13 02:59:17;;;;;;;17.45;12.75;;;8.30;83.30;;;;;;5143155;27;37754;-56
2022/03/13 03:01:45;;;;;;;19.90;12.52;;;8.30;83.50;;;;;;5142389;27;39001;-56
2022/03/13 03:04:14;;;;;;;19.85;13.10;;;8.40;83.50;;;;;;5142897;27;35732;-56
2022/03/13 03:06:59;;;;;;;19.65;12.73;;;8.40;83.70;;;;;;5141890;27;37422;-56
2022/03/13 03:09:29;;;;;;;17.38;13.25;;;8.40;84.10;;;;;;5143231;27;37682;-56
2022/03/13 03:11:57;;;;;;;18.00;12.90;;;8.40;83.80;;;;;;5143182;27;38160;-56
2022/03/13 03:14:25;;;;;;;21.02;12.45;;;8.40;83.80;;;;;;5140942;27;36320;-56
2022/03/13 03:16:54;;;;;;;19.42;12.07;;;8.40;83.90;;;;;;5141524;27;36688;-56
2022/03/13 03:19:23;;;;;;;18.48;12.00;;;8.40;84.00;;;;;;5141664;27;36375;-56
2022/03/13 03:21:52;;;;;;;16.75;11.90;;;8.40;84.00;;;;;;5141700;27;37602;-57
2022/03/13 03:24:21;;;;;;;21.80;12.55;;;8.40;84.10;;;;;;5142684;27;37443;-56
2022/03/13 03:26:49;;;;;;;18.50;12.35;;;8.40;84.10;;;;;;5142514;27;37260;-56
2022/03/13 03:29:16;;;;;;;17.85;11.82;;;8.50;84.10;;;;;;5141066;27;36300;-56
2022/03/13 03:31:45;;;;;;;17.38;11.80;;;8.50;83.90;;;;;;5142909;27;38496;-56
2022/03/13 03:34:15;;;;;;;28.08;13.85;;;8.50;83.70;;;;;;5142844;27;36324;-56
2022/03/13 03:36:47;;;;;;;17.90;11.38;;;8.60;83.60;;;;;;5142570;27;37999;-57
2022/03/13 03:39:16;;;;;;;21.08;12.52;;;8.60;83.50;;;;;;5142476;27;37382;-56
2022/03/13 03:41:44;;;;;;;18.77;12.07;;;8.70;83.30;;;;;;5142266;27;37180;-56
2022/03/13 03:44:13;;;;;;;18.50;12.35;;;8.60;83.20;;;;;;5142537;27;36974;-56
2022/03/13 03:46:41;;;;;;;17.17;13.02;;;8.60;83.20;;;;;;5141028;27;36804;-56
2022/03/13 03:49:08;;;;;;;16.80;11.45;;;8.70;83.30;;;;;;5142287;27;39759;-56
2022/03/13 03:51:36;;;;;;;17.95;12.88;;;8.70;83.20;;;;;;5142605;27;37680;-56
2022/03/13 03:54:06;;;;;;;18.35;12.85;;;8.70;83.30;;;;;;5141650;27;37317;-57
2022/03/13 03:56:34;;;;;;;17.63;12.57;;;8.70;83.20;;;;;;5142242;27;37436;-56
2022/03/13 03:59:02;;;;;;;19.08;12.77;;;8.70;83.30;;;;;;5140978;27;38821;-55
2022/03/13 04:01:37;;;;;;;19.85;12.73;;;8.60;83.30;;;;;;5142383;27;38550;-56
2022/03/13 04:04:06;;;;;;;18.50;12.65;;;8.60;83.60;;;;;;5141790;27;37743;-56
2022/03/13 04:06:34;;;;;;;19.60;12.32;;;8.60;83.80;;;;;;5140897;27;37283;-56
2022/03/13 04:09:01;;;;;;;19.50;12.95;;;8.50;84.20;;;;;;5142108;27;37471;-56
2022/03/13 04:11:30;;;;;;;20.65;12.52;;;8.40;84.30;;;;;;5143108;27;36278;-56
2022/03/13 04:13:58;;;;;;;19.75;13.52;;;8.30;84.60;;;;;;5142244;27;36288;-56
2022/03/13 04:16:26;;;;;;;19.30;12.65;;;8.30;84.80;;;;;;5141577;27;36901;-56
2022/03/13 04:18:54;;;;;;;19.08;12.02;;;8.20;84.90;;;;;;5141357;27;37618;-56
2022/03/13 04:21:23;;;;;;;17.35;12.80;;;8.10;84.80;;;;;;5141142;27;37662;-56
2022/03/13 04:23:51;;;;;;;20.08;11.77;;;8.00;84.80;;;;;;5140844;27;40020;-56
2022/03/13 04:26:20;;;;;;;19.10;12.40;;;7.90;84.70;;;;;;5140603;27;37257;-56
2022/03/13 04:28:49;;;;;;;19.40;12.55;;;7.90;84.80;;;;;;5140652;27;37518;-57
2022/03/13 04:31:16;;;;;;;18.33;12.57;;;7.80;84.90;;;;;;5141222;27;37259;-56
2022/03/13 04:33:45;;;;;;;21.33;12.30;;;7.70;84.80;;;;;;5141823;27;37303;-56
2022/03/13 04:36:14;;;;;;;19.45;12.93;;;7.70;84.90;;;;;;5141825;27;36571;-57
2022/03/13 04:38:41;;;;;;;21.80;13.13;;;7.60;85.00;;;;;;5139281;27;37742;-56
2022/03/13 04:41:09;;;;;;;17.83;12.00;;;7.60;85.30;;;;;;5141702;27;40108;-56
2022/03/13 04:43:37;;;;;;;18.08;12.13;;;7.60;85.50;;;;;;5141616;27;36176;-57
2022/03/13 04:46:06;;;;;;;20.35;12.18;;;7.50;85.80;;;;;;5141213;27;35608;-57
2022/03/13 04:48:34;;;;;;;16.35;11.93;;;7.50;86.60;;;;;;5140851;27;36360;-56
2022/03/13 04:51:01;;;;;;;17.90;12.75;;;7.50;86.00;;;;;;5141962;27;36561;-56
2022/03/13 04:53:29;;;;;;;22.10;12.85;;;7.50;86.30;;;;;;5141331;27;39799;-55
2022/03/13 04:55:57;;;;;;;21.42;12.98;;;7.50;86.50;;;;;;5140724;27;37261;-56
2022/03/13 04:58:24;;;;;;;18.13;12.27;;;7.50;86.80;;;;;;5140215;27;36152;-56
2022/03/13 05:00:52;;;;;;;21.65;13.43;;;7.50;86.90;;;;;;5141650;27;37091;-56
2022/03/13 05:03:21;;;;;;;18.67;13.57;;;7.50;87.30;;;;;;5140298;27;38282;-56
2022/03/13 05:05:48;;;;;;;20.30;13.57;;;7.50;87.40;;;;;;5141249;27;37649;-56
2022/03/13 05:08:16;;;;;;;21.73;13.35;;;7.50;87.30;;;;;;5141079;27;37687;-56
2022/03/13 05:10:45;;;;;;;19.88;12.82;;;7.50;87.20;;;;;;5140492;27;37299;-56
2022/03/13 05:13:14;;;;;;;21.00;12.75;;;7.50;87.00;;;;;;5140902;27;37282;-56
2022/03/13 05:15:42;;;;;;;21.25;13.05;;;7.50;86.80;;;;;;5141400;27;36791;-56
2022/03/13 05:18:12;;;;;;;19.20;12.48;;;7.50;86.50;;;;;;5141066;27;38483;-57
2022/03/13 05:20:41;;;;;;;18.02;11.68;;;7.50;86.20;;;;;;5141006;27;37830;-57
2022/03/13 05:23:09;;;;;;;17.48;12.05;;;7.50;85.90;;;;;;5140846;27;37357;-56
2022/03/13 05:25:37;;;;;;;19.52;12.27;;;7.50;85.90;;;;;;5140841;27;36816;-56
2022/03/13 05:28:06;;;;;;;17.63;11.98;;;7.50;85.70;;;;;;5139808;27;36995;-56
2022/03/13 05:30:34;;;;;;;19.00;12.60;;;7.50;85.60;;;;;;5141374;27;40260;-55
2022/03/13 05:33:01;;;;;;;20.15;12.63;;;7.50;85.40;;;;;;5141977;27;37320;-56
2022/03/13 05:35:29;;;;;;;18.45;12.57;;;7.50;85.40;;;;;;5141920;27;38524;-57
2022/03/13 05:37:58;;;;;;;20.58;12.98;;;7.50;85.50;;;;;;5141528;27;36416;-56
2022/03/13 05:40:26;;;;;;;20.30;12.52;;;7.50;85.40;;;;;;5141099;27;38467;-57
2022/03/13 05:42:55;;;;;;;20.27;13.23;;;7.50;85.20;;;;;;5141054;27;36063;-57
2022/03/13 05:45:25;;;;;;;21.45;12.82;;;7.50;84.80;;;;;;5141686;27;36778;-57
2022/03/13 05:47:54;;;;;;;18.10;12.52;;;7.50;84.50;;;;;;5139659;27;37177;-56
2022/03/13 05:50:23;;;;;;;21.55;11.88;;;7.40;84.20;;;;;;5138883;27;37519;-56
2022/03/13 05:52:51;;;;;;;18.40;12.35;;;7.50;84.00;;;;;;5140180;27;37060;-56
2022/03/13 05:55:20;;;;;;;17.00;11.68;;;7.50;83.80;;;;;;5139801;27;36416;-57
2022/03/13 05:57:47;;;;;;;19.17;12.77;;;7.50;83.70;;;;;;5144689;27;36423;-56
2022/03/13 06:00:16;;;;;;;19.65;11.75;;;7.60;83.60;;;;;;5147076;27;37700;-57
2022/03/13 06:02:47;;;;;;;19.13;12.32;;;7.50;83.40;;;;;;5147393;27;39671;-56
2022/03/13 06:05:17;;;;;;;16.00;11.52;;;7.60;83.30;;;;;;5147425;27;36651;-56
2022/03/13 06:07:45;;;;;;;18.52;12.15;;;7.60;83.20;;;;;;5147893;27;36433;-57
2022/03/13 06:10:13;;;;;;;19.35;11.77;;;7.70;83.30;;;;;;5148007;27;40216;-57
2022/03/13 06:12:42;;;;;;;16.40;11.40;;;7.70;82.70;;;;;;5148375;27;37983;-56
2022/03/13 06:15:12;;;;;;;18.90;12.15;;;7.60;82.30;;;;;;5147867;27;36323;-56
2022/03/13 06:17:41;;;;;;;17.98;11.85;;;7.90;82.00;;;;;;5147836;27;38282;-56
2022/03/13 06:20:10;;;;;;;18.60;11.90;;;8.00;81.70;;;;;;5148139;27;37510;-56
2022/03/13 06:22:38;;;;;;;18.23;12.32;;;8.00;81.50;;;;;;5147681;27;37307;-56
2022/03/13 06:25:07;;;;;;;17.17;11.20;;;8.00;81.40;;;;;;5146960;27;36634;-55
2022/03/13 06:27:35;;;;;;;22.45;12.32;;;8.00;81.30;;;;;;5145005;27;40061;-56
2022/03/13 06:30:13;;;;;;;15.60;10.80;;;8.00;80.90;;;;;;5146118;27;37830;-57
2022/03/13 06:32:41;;;;;;;18.50;11.98;;;8.10;80.50;;;;;;5145517;27;37760;-55
2022/03/13 06:35:10;;;;;;;17.13;11.25;;;8.10;80.40;;;;;;5146440;27;37021;-56
2022/03/13 06:37:38;;;;;;;18.42;11.50;;;8.20;79.40;;;;;;5147084;27;37963;-56
2022/03/13 06:40:10;;;;;;;17.92;11.38;;;8.10;79.00;;;;;;5147392;27;37558;-56
2022/03/13 06:42:38;;;;;;;18.13;11.48;;;8.10;79.10;;;;;;5146993;27;37574;-56
2022/03/13 06:45:10;;;;;;;17.35;12.32;;;8.00;79.80;;;;;;5148068;27;37289;-55
2022/03/13 06:47:38;;;;;;;18.13;11.30;;;8.00;79.40;;;;;;5146455;27;37607;-56
2022/03/13 06:50:07;;;;;;;18.20;11.75;;;8.00;79.50;;;;;;5147165;27;38690;-56
2022/03/13 06:52:34;;;;;;;16.83;12.15;;;8.00;79.60;;;;;;5148160;27;37360;-56
2022/03/13 06:55:02;;;;;;;17.73;11.40;;;7.90;79.40;;;;;;5146886;27;36908;-56
2022/03/13 06:57:29;;;;;;;15.57;10.85;;;7.90;79.30;;;;;;5146456;27;36087;-56
2022/03/13 06:59:57;;;;;;;19.75;11.38;;;7.90;79.40;;;;;;5147601;27;37739;-56
2022/03/13 07:02:26;;;;;;;19.00;11.93;;;7.90;79.10;;;;;;5146499;27;37846;-56
2022/03/13 07:04:53;;;;;;;16.67;10.70;;;7.90;79.20;;;;;;5146412;27;37922;-56
2022/03/13 07:07:20;;;;;;;18.88;11.23;;;8.00;79.00;;;;;;5146935;27;37412;-57
2022/03/13 07:09:49;;;;;;;16.40;10.77;;;8.00;78.90;;;;;;5143374;27;38100;-56
2022/03/13 07:12:16;;;;;;;19.80;12.10;;;8.00;78.50;;;;;;5144449;27;39739;-56
2022/03/13 07:14:46;;;;;;;18.33;10.48;;;8.00;78.20;;;;;;5144454;27;37826;-56
2022/03/13 07:17:15;;;;;;;18.77;11.25;;;8.00;78.00;;;;;;5143800;27;36249;-56
2022/03/13 07:19:45;;;;;;;15.93;10.60;;;8.00;77.50;;;;;;5143952;27;37317;-56
2022/03/13 07:22:13;;;;;;;17.33;11.15;;;8.10;77.30;;;;;;5143863;27;37666;-56
2022/03/13 07:24:41;;;;;;;16.60;10.82;;;8.10;77.20;;;;;;5143539;27;36925;-56
2022/03/13 07:27:09;;;;;;;16.92;10.48;;;8.20;77.20;;;;;;5142990;27;37552;-56
2022/03/13 07:29:36;;;;;;;17.17;10.88;;;8.30;77.50;;;;;;5142679;27;39653;-56
2022/03/13 07:32:05;;;;;;;15.90;11.05;;;8.30;77.50;;;;;;5144128;27;37356;-56
2022/03/13 07:34:32;;;;;;;15.40;10.60;;;8.30;77.40;;;;;;5143467;27;38128;-55
2022/03/13 07:37:01;;;;;;;16.38;11.30;;;8.40;77.50;;;;;;5143324;27;37712;-56
2022/03/13 07:39:28;;;;;;;18.42;10.57;;;8.50;77.20;;;;;;5142853;27;38313;-56
2022/03/13 07:41:56;;;;;;;15.65;10.68;;;8.50;77.40;;;;;;5143394;27;36200;-56
2022/03/13 07:44:23;;;;;;;15.65;10.85;;;8.60;77.20;;;;;;5142596;27;37147;-56
2022/03/13 07:46:51;;;;;;;18.15;10.80;;;8.60;76.40;;;;;;5142345;27;38372;-56
2022/03/13 07:49:18;;;;;;;20.13;10.35;;;8.60;75.90;;;;;;5142144;27;37882;-56
2022/03/13 07:51:46;;;;;;;16.88;11.13;;;8.60;76.00;;;;;;5141493;27;38023;-56
2022/03/13 07:54:18;;;;;;;17.08;10.75;;;8.60;74.70;;;;;;5140360;27;36996;-56
2022/03/13 07:56:45;;;;;;;15.63;10.35;;;8.60;74.70;;;;;;5141478;27;38162;-56
2022/03/13 07:59:13;;;;;;;15.32;10.88;;;8.60;74.30;;;;;;5139335;27;36495;-57
2022/03/13 08:01:40;;;;;;;15.32;10.48;;;8.60;74.20;;;;;;5141708;27;40546;-56
2022/03/13 08:04:07;;;;;;;16.63;10.93;;;8.60;73.00;;;;;;5142504;27;36788;-56
2022/03/13 08:06:39;;;;;;;16.48;10.63;;;8.60;73.20;;;;;;5142136;27;38344;-57
2022/03/13 08:09:08;;;;;;;17.52;10.50;;;8.60;73.10;;;;;;5143435;27;39105;-56
2022/03/13 08:11:38;;;;;;;15.88;10.23;;;8.60;72.80;;;;;;5143359;27;36438;-56
2022/03/13 08:14:07;;;;;;;22.10;10.25;;;8.70;72.10;;;;;;5142647;27;36622;-56
2022/03/13 08:16:35;;;;;;;16.95;9.95;;;8.80;71.70;;;;;;5141876;27;37595;-56
2022/03/13 08:19:03;;;;;;;14.02;9.35;;;8.70;70.90;;;;;;5142513;27;38916;-57
2022/03/13 08:21:30;;;;;;;14.73;9.75;;;8.80;71.00;;;;;;5141543;27;37814;-56
2022/03/13 08:23:58;;;;;;;16.25;10.32;;;8.90;70.30;;;;;;5141985;27;35340;-56
2022/03/13 08:26:26;;;;;;;14.20;10.15;;;8.90;69.70;;;;;;5142464;27;36991;-56
2022/03/13 08:28:55;;;;;;;16.30;10.27;;;9.00;70.10;;;;;;5141851;27;37743;-56
2022/03/13 08:31:22;;;;;;;17.05;10.77;;;9.10;69.60;;;;;;5142630;27;39285;-56
2022/03/13 08:33:50;;;;;;;16.00;10.50;;;9.10;68.80;;;;;;5142041;27;37248;-56
2022/03/13 08:36:17;;;;;;;19.38;10.10;;;9.20;68.20;;;;;;5141297;27;38780;-56
2022/03/13 08:38:45;;;;;;;15.48;10.15;;;9.30;68.00;;;;;;5140307;27;37938;-56
2022/03/13 08:41:12;;;;;;;19.25;10.93;;;9.30;67.60;;;;;;5142062;27;37684;-56
2022/03/13 08:43:39;;;;;;;15.18;9.32;;;9.50;67.40;;;;;;5141753;27;35406;-56
2022/03/13 08:46:12;;;;;;;16.27;10.07;;;9.70;67.50;;;;;;5142153;27;37783;-56
2022/03/13 08:48:40;;;;;;;14.98;10.18;;;9.90;65.50;;;;;;5140972;27;37793;-56
2022/03/13 08:51:08;;;;;;;14.98;9.55;;;10.20;66.00;;;;;;5141982;27;37013;-57
2022/03/13 08:53:35;;;;;;;16.90;9.73;;;10.70;65.00;;;;;;5142132;27;36961;-56
2022/03/13 08:56:03;;;;;;;14.15;9.57;;;11.20;63.30;;;;;;5141514;27;38566;-56
2022/03/13 08:58:30;;;;;;;16.55;9.50;;;11.70;61.90;;;;;;5140022;27;37340;-56
2022/03/13 09:00:57;;;;;;;15.73;9.75;;;12.10;59.40;;;;;;5139816;27;38419;-56
2022/03/13 09:03:28;;;;;;;14.55;9.75;;;12.50;57.00;;;;;;5139431;27;36483;-56
2022/03/13 09:05:56;;;;;;;15.10;10.10;;;12.90;55.00;;;;;;5140115;27;38053;-57
2022/03/13 09:08:23;;;;;;;14.32;10.18;;;13.30;54.30;;;;;;5138557;27;37780;-56
2022/03/13 09:10:52;;;;;;;14.85;9.80;;;13.70;53.10;;;;;;5141148;27;36697;-57
2022/03/13 09:13:20;;;;;;;15.20;10.15;;;14.10;51.90;;;;;;5141604;27;36384;-56
2022/03/13 09:15:47;;;;;;;15.95;10.27;;;14.40;50.70;;;;;;5141712;27;37791;-57
2022/03/13 09:18:15;;;;;;;14.50;9.82;;;14.80;50.10;;;;;;5140866;27;36492;-57
2022/03/13 09:20:44;;;;;;;15.90;9.20;;;15.20;49.00;;;;;;5141579;27;37899;-57
2022/03/13 09:23:11;;;;;;;14.13;9.00;;;15.50;46.00;;;;;;5140446;27;36585;-58
2022/03/13 09:25:39;;;;;;;13.23;9.65;;;15.90;45.50;;;;;;5140503;27;37259;-57
2022/03/13 09:28:06;;;;;;;16.00;10.35;;;16.20;44.30;;;;;;5140828;27;36097;-56
2022/03/13 09:30:33;;;;;;;13.30;9.23;;;16.40;43.90;;;;;;5140287;27;36907;-57
2022/03/13 09:33:01;;;;;;;15.48;10.02;;;16.40;42.80;;;;;;5140644;27;37293;-57
2022/03/13 09:35:29;;;;;;;13.73;9.25;;;16.40;43.30;;;;;;5140983;27;38287;-55
2022/03/13 09:37:57;;;;;;;13.60;9.10;;;16.20;42.90;;;;;;5140233;27;37811;-55
2022/03/13 09:40:26;;;;;;;14.82;10.10;;;16.10;42.60;;;;;;5141360;27;37270;-55
2022/03/13 09:42:54;;;;;;;14.52;9.43;;;16.00;43.10;;;;;;5140622;27;35417;-55
2022/03/13 09:45:22;;;;;;;15.52;9.38;;;16.00;43.00;;;;;;5139577;27;37648;-54
2022/03/13 09:47:50;;;;;;;13.60;9.73;;;16.10;43.70;;;;;;5139934;27;37767;-55
2022/03/13 09:50:18;;;;;;;13.60;10.05;;;16.20;42.70;;;;;;5139771;27;38639;-55
2022/03/13 09:52:45;;;;;;;14.30;9.77;;;16.20;42.00;;;;;;5140859;27;36980;-55
2022/03/13 09:55:15;;;;;;;14.20;9.77;;;16.40;41.70;;;;;;5141235;27;36239;-55
2022/03/13 09:57:48;;;;;;;13.32;9.13;;;16.50;40.90;;;;;;5139836;27;38413;-57
2022/03/13 10:00:18;;;;;;;13.40;9.20;;;16.70;40.60;;;;;;5140709;27;37716;-57
2022/03/13 10:02:46;;;;;;;12.50;9.20;;;16.90;40.50;;;;;;5139472;27;37053;-57
2022/03/13 10:05:16;;;;;;;13.15;9.80;;;17.20;39.30;;;;;;5139221;27;37559;-57
2022/03/13 10:07:54;;;;;;;15.07;10.40;;;17.40;39.10;;;;;;5138596;27;37566;-57
2022/03/13 10:10:24;;;;;;;14.85;9.90;;;17.70;37.50;;;;;;5140490;27;37331;-57
2022/03/13 10:12:52;;;;;;;12.63;8.90;;;17.90;36.90;;;;;;5140604;27;37048;-55
2022/03/13 10:15:19;;;;;;;16.50;10.13;;;18.00;37.00;;;;;;5140454;27;36270;-57
2022/03/13 10:17:48;;;;;;;15.05;9.40;;;18.00;37.60;;;;;;5140350;27;39521;-57
2022/03/13 10:20:19;;;;;;;14.63;9.63;;;17.90;37.30;;;;;;5140074;27;37352;-57
2022/03/13 10:22:49;;;;;;;16.27;10.00;;;17.80;37.60;;;;;;5140195;27;36434;-57
2022/03/13 10:25:30;;;;;;;15.15;10.48;;;17.60;37.90;;;;;;5141126;27;36146;-57
2022/03/13 10:28:18;;;;;;;14.93;9.70;;;17.70;37.70;;;;;;5138416;27;39465;-57
2022/03/13 10:30:47;;;;;;;13.45;10.30;;;17.70;36.20;;;;;;5140478;27;36880;-57
2022/03/13 10:33:14;;;;;;;14.48;10.00;;;18.00;37.20;;;;;;5140464;27;35088;-57
2022/03/13 10:35:42;;;;;;;15.45;10.48;;;18.20;36.70;;;;;;5138033;27;38368;-57
2022/03/13 10:38:18;;;;;;;15.55;10.38;;;18.40;36.90;;;;;;5139796;27;39903;-57
2022/03/13 10:40:50;;;;;;;13.93;9.88;;;18.60;35.20;;;;;;5139823;27;41384;-57
2022/03/13 10:43:26;;;;;;;15.02;10.23;;;19.00;36.50;;;;;;5140295;27;37302;-57
2022/03/13 10:45:54;;;;;;;15.27;10.32;;;19.20;35.90;;;;;;5142368;27;37443;-57
2022/03/13 10:48:28;;;;;;;16.00;10.48;;;19.30;35.20;;;;;;5142591;27;38110;-58
2022/03/13 10:50:57;;;;;;;14.00;10.35;;;19.30;34.90;;;;;;5143569;27;38230;-57
2022/03/13 10:53:27;;;;;;;15.90;10.15;;;19.20;35.00;;;;;;5143423;27;37044;-57
2022/03/13 10:56:08;;;;;;;13.10;9.85;;;19.10;35.20;;;;;;5143347;27;37785;-57
2022/03/13 10:58:37;;;;;;;16.00;10.52;;;18.90;35.30;;;;;;5142509;27;38449;-57
2022/03/13 11:01:07;;;;;;;15.27;10.38;;;18.80;36.00;;;;;;5142009;27;37357;-57
2022/03/13 11:03:35;;;;;;;14.40;10.15;;;18.70;36.70;;;;;;5142510;27;36931;-57
2022/03/13 11:06:03;;;;;;;14.57;10.05;;;18.80;36.90;;;;;;5140350;27;39216;-57
2022/03/13 11:08:30;;;;;;;13.35;9.55;;;18.90;36.10;;;;;;5140513;27;37611;-57
2022/03/13 11:10:58;;;;;;;16.17;10.30;;;18.90;35.30;;;;;;5141454;27;37177;-57
2022/03/13 11:13:27;;;;;;;17.60;10.82;;;19.00;35.70;;;;;;5143195;27;37377;-57
2022/03/13 11:15:57;;;;;;;16.15;9.85;;;19.20;35.90;;;;;;5143654;27;37179;-57
2022/03/13 11:18:32;;;;;;;13.70;9.85;;;19.20;36.00;;;;;;5144302;27;37495;-57
2022/03/13 11:21:00;;;;;;;13.85;10.07;;;19.20;36.00;;;;;;5142637;27;37799;-57
2022/03/13 11:23:32;;;;;;;13.23;10.13;;;19.00;36.60;;;;;;5141853;27;36587;-57
2022/03/13 11:26:00;;;;;;;16.35;10.32;;;19.00;36.30;;;;;;5140226;27;37711;-57
2022/03/13 11:28:29;;;;;;;14.63;9.95;;;19.00;36.70;;;;;;5141995;27;37841;-57
2022/03/13 11:30:57;;;;;;;15.38;10.00;;;19.00;37.10;;;;;;5142386;27;37440;-57
2022/03/13 11:33:34;;;;;;;16.65;10.82;;;18.90;37.00;;;;;;5142068;27;38030;-57
2022/03/13 11:36:30;;;;;;;14.82;11.10;;;18.80;37.10;;;;;;5140273;27;38459;-57
2022/03/13 11:39:02;;;;;;;19.83;10.95;;;18.70;36.70;;;;;;5142685;27;36440;-57
2022/03/13 11:41:41;;;;;;;13.02;9.70;;;18.70;37.90;;;;;;5141731;27;37423;-57
2022/03/13 11:44:42;;;;;;;15.23;9.68;;;18.70;37.70;;;;;;5142802;27;36453;-57
2022/03/13 11:47:26;;;;;;;14.75;10.32;;;18.60;38.50;;;;;;5075682;27;39792;-57
2022/03/13 11:49:54;;;;;;;15.00;10.18;;;18.50;38.00;;;;;;5076728;27;37825;-57
2022/03/13 11:52:30;;;;;;;13.10;9.18;;;18.40;38.40;;;;;;5113309;27;37560;-57
2022/03/13 11:55:00;;;;;;;16.15;9.85;;;18.20;38.50;;;;;;5142473;27;35433;-57
2022/03/13 11:57:30;;;;;;;15.57;9.82;;;18.10;38.80;;;;;;5141374;27;37528;-56
2022/03/13 12:00:30;;;;;;;12.60;8.75;;;18.00;38.80;;;;;;5142182;27;37260;-57
2022/03/13 12:03:12;;;;;;;13.95;9.57;;;17.90;38.70;;;;;;5075931;27;37401;-57
2022/03/13 12:05:50;;;;;;;13.75;9.52;;;17.80;39.00;;;;;;5133189;27;36652;-57
2022/03/13 12:08:21;;;;;;;13.32;9.75;;;17.80;39.80;;;;;;5142260;27;37320;-57
2022/03/13 12:10:49;;;;;;;14.07;9.48;;;17.70;39.80;;;;;;5141773;27;37544;-57
2022/03/13 12:13:18;;;;;;;15.20;9.48;;;17.60;39.30;;;;;;5142680;27;39401;-57
2022/03/13 12:15:47;;;;;;;13.70;10.00;;;17.50;39.50;;;;;;5141092;27;38742;-57
2022/03/13 12:18:17;;;;;;;12.88;8.88;;;17.40;40.10;;;;;;5140678;27;36497;-57
2022/03/13 12:20:46;;;;;;;14.50;8.90;;;17.40;40.00;;;;;;5141563;27;37415;-57
2022/03/13 12:23:26;;;;;;;14.27;9.20;;;17.30;40.40;;;;;;5140498;27;36914;-57
2022/03/13 12:25:54;;;;;;;16.25;9.63;;;17.20;40.60;;;;;;5140821;27;37259;-57
2022/03/13 12:28:35;;;;;;;13.43;9.77;;;17.20;40.70;;;;;;5141585;27;37616;-57
2022/03/13 12:31:04;;;;;;;13.45;9.02;;;17.10;40.80;;;;;;5142425;27;37623;-57
2022/03/13 12:33:33;;;;;;;12.55;9.30;;;17.10;41.00;;;;;;5142119;27;37628;-58
2022/03/13 12:36:02;;;;;;;18.00;9.48;;;17.00;40.10;;;;;;5141607;27;36502;-57
2022/03/13 12:38:31;;;;;;;13.48;9.60;;;16.90;40.60;;;;;;5141995;27;37678;-57
2022/03/13 12:41:00;;;;;;;15.50;9.00;;;16.80;40.70;;;;;;5141551;27;37761;-56
2022/03/13 12:43:50;;;;;;;15.15;10.10;;;16.70;40.90;;;;;;5142082;27;38069;-57
2022/03/13 12:46:21;;;;;;;15.57;8.98;;;16.60;41.10;;;;;;5141328;27;35653;-57
2022/03/13 12:48:56;;;;;;;14.15;9.25;;;16.50;41.10;;;;;;5140967;27;37404;-57